sensor_id;sensor_type;location;lat;lon;timestamp;P1;durP1;ratioP1;P2;durP2;ratioP2
23302;SDS011;11820;48.738;9.092;2024-01-25T00:00:16;16.40;;;3.77;;
23302;SDS011;11820;48.738;9.092;2024-01-25T00:02:42;19.47;;;3.63;;
23302;SDS011;11820;48.738;9.092;2024-01-25T00:05:07;14.30;;;3.40;;
23302;SDS011;11820;48.738;9.092;2024-01-25T00:07:33;18.87;;;4.00;;
23302;SDS011;11820;48.738;9.092;2024-01-25T00:09:58;15.00;;;4.03;;
23302;SDS011;11820;48.738;9.092;2024-01-25T00:12:23;19.13;;;3.77;;
23302;SDS011;11820;48.738;9.092;2024-01-25T00:14:48;18.70;;;3.97;;
23302;SDS011;11820;48.738;9.092;2024-01-25T00:17:14;18.23;;;4.37;;
23302;SDS011;11820;48.738;9.092;2024-01-25T00:19:39;17.30;;;3.47;;
23302;SDS011;11820;48.738;9.092;2024-01-25T00:22:06;17.30;;;4.37;;
23302;SDS011;11820;48.738;9.092;2024-01-25T00:24:32;17.70;;;3.93;;
23302;SDS011;11820;48.738;9.092;2024-01-25T00:26:58;18.57;;;4.77;;
23302;SDS011;11820;48.738;9.092;2024-01-25T00:29:23;16.90;;;3.70;;
23302;SDS011;11820;48.738;9.092;2024-01-25T00:31:48;19.73;;;4.37;;
23302;SDS011;11820;48.738;9.092;2024-01-25T00:34:14;19.40;;;4.07;;
23302;SDS011;11820;48.738;9.092;2024-01-25T00:36:40;21.80;;;3.30;;
23302;SDS011;11820;48.738;9.092;2024-01-25T00:39:06;17.30;;;4.23;;
23302;SDS011;11820;48.738;9.092;2024-01-25T00:41:31;19.60;;;4.47;;
23302;SDS011;11820;48.738;9.092;2024-01-25T00:43:58;26.17;;;4.90;;
23302;SDS011;11820;48.738;9.092;2024-01-25T00:46:23;24.07;;;5.23;;
23302;SDS011;11820;48.738;9.092;2024-01-25T00:48:49;18.23;;;3.90;;
23302;SDS011;11820;48.738;9.092;2024-01-25T00:51:15;21.27;;;4.17;;
23302;SDS011;11820;48.738;9.092;2024-01-25T00:53:47;20.53;;;3.93;;
23302;SDS011;11820;48.738;9.092;2024-01-25T00:56:12;20.27;;;3.80;;
23302;SDS011;11820;48.738;9.092;2024-01-25T00:58:38;19.13;;;4.40;;
23302;SDS011;11820;48.738;9.092;2024-01-25T01:01:04;17.20;;;4.20;;
23302;SDS011;11820;48.738;9.092;2024-01-25T01:03:29;19.83;;;3.93;;
23302;SDS011;11820;48.738;9.092;2024-01-25T01:05:55;13.50;;;3.30;;
23302;SDS011;11820;48.738;9.092;2024-01-25T01:08:22;18.97;;;3.27;;
23302;SDS011;11820;48.738;9.092;2024-01-25T01:10:47;19.10;;;4.17;;
23302;SDS011;11820;48.738;9.092;2024-01-25T01:13:13;13.57;;;3.60;;
23302;SDS011;11820;48.738;9.092;2024-01-25T01:15:38;14.63;;;3.23;;
23302;SDS011;11820;48.738;9.092;2024-01-25T01:18:03;17.67;;;4.23;;
23302;SDS011;11820;48.738;9.092;2024-01-25T01:20:30;16.30;;;4.27;;
23302;SDS011;11820;48.738;9.092;2024-01-25T01:22:55;19.20;;;3.93;;
23302;SDS011;11820;48.738;9.092;2024-01-25T01:25:21;21.20;;;4.20;;
23302;SDS011;11820;48.738;9.092;2024-01-25T01:27:46;14.93;;;3.67;;
23302;SDS011;11820;48.738;9.092;2024-01-25T01:30:12;19.50;;;4.23;;
23302;SDS011;11820;48.738;9.092;2024-01-25T01:32:37;24.80;;;4.63;;
23302;SDS011;11820;48.738;9.092;2024-01-25T01:35:02;24.00;;;4.27;;
23302;SDS011;11820;48.738;9.092;2024-01-25T01:37:28;17.77;;;4.00;;
23302;SDS011;11820;48.738;9.092;2024-01-25T01:39:54;19.53;;;4.23;;
23302;SDS011;11820;48.738;9.092;2024-01-25T01:42:20;18.10;;;4.10;;
23302;SDS011;11820;48.738;9.092;2024-01-25T01:44:46;16.67;;;3.83;;
23302;SDS011;11820;48.738;9.092;2024-01-25T01:47:12;19.70;;;4.07;;
23302;SDS011;11820;48.738;9.092;2024-01-25T01:49:37;19.93;;;3.80;;
23302;SDS011;11820;48.738;9.092;2024-01-25T01:52:03;17.70;;;3.80;;
23302;SDS011;11820;48.738;9.092;2024-01-25T01:54:29;14.87;;;4.10;;
23302;SDS011;11820;48.738;9.092;2024-01-25T01:56:54;20.60;;;3.90;;
23302;SDS011;11820;48.738;9.092;2024-01-25T01:59:20;15.83;;;3.27;;
23302;SDS011;11820;48.738;9.092;2024-01-25T02:01:46;21.73;;;4.50;;
23302;SDS011;11820;48.738;9.092;2024-01-25T02:04:11;20.87;;;4.63;;
23302;SDS011;11820;48.738;9.092;2024-01-25T02:06:36;20.03;;;4.40;;
23302;SDS011;11820;48.738;9.092;2024-01-25T02:09:02;25.43;;;4.50;;
23302;SDS011;11820;48.738;9.092;2024-01-25T02:11:27;22.37;;;4.40;;
23302;SDS011;11820;48.738;9.092;2024-01-25T02:13:53;17.03;;;3.60;;
23302;SDS011;11820;48.738;9.092;2024-01-25T02:16:19;15.27;;;3.60;;
23302;SDS011;11820;48.738;9.092;2024-01-25T02:18:45;13.73;;;3.80;;
23302;SDS011;11820;48.738;9.092;2024-01-25T02:21:11;20.63;;;3.80;;
23302;SDS011;11820;48.738;9.092;2024-01-25T02:23:37;22.17;;;3.90;;
23302;SDS011;11820;48.738;9.092;2024-01-25T02:26:02;19.57;;;4.20;;
23302;SDS011;11820;48.738;9.092;2024-01-25T02:28:28;17.23;;;3.50;;
23302;SDS011;11820;48.738;9.092;2024-01-25T02:30:53;17.17;;;3.53;;
23302;SDS011;11820;48.738;9.092;2024-01-25T02:33:18;19.63;;;4.53;;
23302;SDS011;11820;48.738;9.092;2024-01-25T02:35:44;18.87;;;3.97;;
23302;SDS011;11820;48.738;9.092;2024-01-25T02:38:09;17.47;;;3.97;;
23302;SDS011;11820;48.738;9.092;2024-01-25T02:40:34;15.50;;;3.70;;
23302;SDS011;11820;48.738;9.092;2024-01-25T02:42:59;15.10;;;3.97;;
23302;SDS011;11820;48.738;9.092;2024-01-25T02:45:25;19.97;;;4.80;;
23302;SDS011;11820;48.738;9.092;2024-01-25T02:47:50;21.23;;;4.63;;
23302;SDS011;11820;48.738;9.092;2024-01-25T02:50:15;19.63;;;4.40;;
23302;SDS011;11820;48.738;9.092;2024-01-25T02:52:41;18.77;;;3.07;;
23302;SDS011;11820;48.738;9.092;2024-01-25T02:55:06;21.03;;;4.53;;
23302;SDS011;11820;48.738;9.092;2024-01-25T02:57:32;17.10;;;3.90;;
23302;SDS011;11820;48.738;9.092;2024-01-25T02:59:58;12.80;;;2.83;;
23302;SDS011;11820;48.738;9.092;2024-01-25T03:02:23;23.63;;;4.73;;
23302;SDS011;11820;48.738;9.092;2024-01-25T03:04:49;19.17;;;3.57;;
23302;SDS011;11820;48.738;9.092;2024-01-25T03:07:14;21.93;;;3.77;;
23302;SDS011;11820;48.738;9.092;2024-01-25T03:09:39;17.20;;;4.10;;
23302;SDS011;11820;48.738;9.092;2024-01-25T03:12:05;15.80;;;3.40;;
23302;SDS011;11820;48.738;9.092;2024-01-25T03:14:30;15.00;;;3.30;;
23302;SDS011;11820;48.738;9.092;2024-01-25T03:16:56;13.23;;;3.73;;
23302;SDS011;11820;48.738;9.092;2024-01-25T03:19:24;14.23;;;3.30;;
23302;SDS011;11820;48.738;9.092;2024-01-25T03:21:49;21.47;;;4.13;;
23302;SDS011;11820;48.738;9.092;2024-01-25T03:24:15;15.30;;;3.93;;
23302;SDS011;11820;48.738;9.092;2024-01-25T03:26:40;15.70;;;3.83;;
23302;SDS011;11820;48.738;9.092;2024-01-25T03:29:05;20.30;;;4.03;;
23302;SDS011;11820;48.738;9.092;2024-01-25T03:31:31;18.97;;;3.60;;
23302;SDS011;11820;48.738;9.092;2024-01-25T03:33:56;20.50;;;3.63;;
23302;SDS011;11820;48.738;9.092;2024-01-25T03:36:21;13.80;;;3.27;;
23302;SDS011;11820;48.738;9.092;2024-01-25T03:38:47;13.50;;;2.83;;
23302;SDS011;11820;48.738;9.092;2024-01-25T03:41:12;15.90;;;3.17;;
23302;SDS011;11820;48.738;9.092;2024-01-25T03:43:37;16.87;;;3.27;;
23302;SDS011;11820;48.738;9.092;2024-01-25T03:46:03;19.30;;;3.40;;
23302;SDS011;11820;48.738;9.092;2024-01-25T03:48:28;13.13;;;2.80;;
23302;SDS011;11820;48.738;9.092;2024-01-25T03:50:53;13.83;;;4.30;;
23302;SDS011;11820;48.738;9.092;2024-01-25T03:53:21;16.23;;;4.30;;
23302;SDS011;11820;48.738;9.092;2024-01-25T03:55:47;12.53;;;3.23;;
23302;SDS011;11820;48.738;9.092;2024-01-25T03:58:14;23.07;;;4.03;;
23302;SDS011;11820;48.738;9.092;2024-01-25T04:00:40;15.23;;;3.30;;
23302;SDS011;11820;48.738;9.092;2024-01-25T04:03:05;13.50;;;4.30;;
23302;SDS011;11820;48.738;9.092;2024-01-25T04:05:30;19.00;;;3.53;;
23302;SDS011;11820;48.738;9.092;2024-01-25T04:07:55;16.67;;;3.70;;
23302;SDS011;11820;48.738;9.092;2024-01-25T04:10:21;16.60;;;3.40;;
23302;SDS011;11820;48.738;9.092;2024-01-25T04:12:46;15.57;;;3.20;;
23302;SDS011;11820;48.738;9.092;2024-01-25T04:15:11;15.87;;;3.57;;
23302;SDS011;11820;48.738;9.092;2024-01-25T04:17:37;14.90;;;3.87;;
23302;SDS011;11820;48.738;9.092;2024-01-25T04:20:02;17.90;;;3.53;;
23302;SDS011;11820;48.738;9.092;2024-01-25T04:22:28;15.47;;;3.93;;
23302;SDS011;11820;48.738;9.092;2024-01-25T04:24:53;17.93;;;3.33;;
23302;SDS011;11820;48.738;9.092;2024-01-25T04:27:18;14.70;;;3.83;;
23302;SDS011;11820;48.738;9.092;2024-01-25T04:29:44;16.77;;;3.97;;
23302;SDS011;11820;48.738;9.092;2024-01-25T04:32:09;18.73;;;3.03;;
23302;SDS011;11820;48.738;9.092;2024-01-25T04:34:35;12.47;;;3.67;;
23302;SDS011;11820;48.738;9.092;2024-01-25T04:37:01;20.77;;;4.20;;
23302;SDS011;11820;48.738;9.092;2024-01-25T04:39:27;19.70;;;4.33;;
23302;SDS011;11820;48.738;9.092;2024-01-25T04:41:52;15.53;;;3.37;;
23302;SDS011;11820;48.738;9.092;2024-01-25T04:44:17;18.17;;;3.57;;
23302;SDS011;11820;48.738;9.092;2024-01-25T04:46:43;16.83;;;3.87;;
23302;SDS011;11820;48.738;9.092;2024-01-25T04:49:20;13.23;;;3.30;;
23302;SDS011;11820;48.738;9.092;2024-01-25T04:51:46;13.87;;;3.00;;
23302;SDS011;11820;48.738;9.092;2024-01-25T04:54:11;16.10;;;3.70;;
23302;SDS011;11820;48.738;9.092;2024-01-25T04:56:38;16.07;;;3.23;;
23302;SDS011;11820;48.738;9.092;2024-01-25T04:59:03;16.27;;;3.10;;
23302;SDS011;11820;48.738;9.092;2024-01-25T05:01:29;14.40;;;3.23;;
23302;SDS011;11820;48.738;9.092;2024-01-25T05:03:54;9.70;;;3.13;;
23302;SDS011;11820;48.738;9.092;2024-01-25T05:06:20;19.17;;;3.30;;
23302;SDS011;11820;48.738;9.092;2024-01-25T05:08:45;19.07;;;3.67;;
23302;SDS011;11820;48.738;9.092;2024-01-25T05:11:10;15.30;;;3.40;;
23302;SDS011;11820;48.738;9.092;2024-01-25T05:13:36;16.70;;;3.83;;
23302;SDS011;11820;48.738;9.092;2024-01-25T05:16:01;17.97;;;3.70;;
23302;SDS011;11820;48.738;9.092;2024-01-25T05:18:26;16.47;;;4.20;;
23302;SDS011;11820;48.738;9.092;2024-01-25T05:20:52;14.97;;;4.17;;
23302;SDS011;11820;48.738;9.092;2024-01-25T05:23:17;15.63;;;3.43;;
23302;SDS011;11820;48.738;9.092;2024-01-25T05:25:42;12.60;;;3.67;;
23302;SDS011;11820;48.738;9.092;2024-01-25T05:28:08;18.67;;;4.23;;
23302;SDS011;11820;48.738;9.092;2024-01-25T05:30:33;21.20;;;4.03;;
23302;SDS011;11820;48.738;9.092;2024-01-25T05:32:59;15.40;;;3.83;;
23302;SDS011;11820;48.738;9.092;2024-01-25T05:35:24;21.87;;;4.80;;
23302;SDS011;11820;48.738;9.092;2024-01-25T05:37:49;24.27;;;4.70;;
23302;SDS011;11820;48.738;9.092;2024-01-25T05:40:15;19.37;;;4.40;;
23302;SDS011;11820;48.738;9.092;2024-01-25T05:42:40;19.93;;;3.73;;
23302;SDS011;11820;48.738;9.092;2024-01-25T05:45:06;20.80;;;4.33;;
23302;SDS011;11820;48.738;9.092;2024-01-25T05:47:32;17.57;;;3.47;;
23302;SDS011;11820;48.738;9.092;2024-01-25T05:49:58;20.60;;;4.43;;
23302;SDS011;11820;48.738;9.092;2024-01-25T05:52:23;16.63;;;3.63;;
23302;SDS011;11820;48.738;9.092;2024-01-25T05:54:49;18.90;;;4.00;;
23302;SDS011;11820;48.738;9.092;2024-01-25T05:57:15;21.23;;;4.23;;
23302;SDS011;11820;48.738;9.092;2024-01-25T05:59:40;19.20;;;4.30;;
23302;SDS011;11820;48.738;9.092;2024-01-25T06:02:06;15.93;;;3.77;;
23302;SDS011;11820;48.738;9.092;2024-01-25T06:04:32;20.43;;;4.23;;
23302;SDS011;11820;48.738;9.092;2024-01-25T06:06:58;17.37;;;4.10;;
23302;SDS011;11820;48.738;9.092;2024-01-25T06:09:23;23.23;;;4.80;;
23302;SDS011;11820;48.738;9.092;2024-01-25T06:11:51;16.17;;;3.80;;
23302;SDS011;11820;48.738;9.092;2024-01-25T06:14:17;19.87;;;5.00;;
23302;SDS011;11820;48.738;9.092;2024-01-25T06:16:42;21.00;;;4.23;;
23302;SDS011;11820;48.738;9.092;2024-01-25T06:19:08;26.17;;;5.10;;
23302;SDS011;11820;48.738;9.092;2024-01-25T06:21:33;22.90;;;4.37;;
23302;SDS011;11820;48.738;9.092;2024-01-25T06:24:01;18.57;;;3.53;;
23302;SDS011;11820;48.738;9.092;2024-01-25T06:26:27;21.67;;;4.00;;
23302;SDS011;11820;48.738;9.092;2024-01-25T06:28:53;13.10;;;3.13;;
23302;SDS011;11820;48.738;9.092;2024-01-25T06:31:18;21.17;;;4.03;;
23302;SDS011;11820;48.738;9.092;2024-01-25T06:33:43;20.20;;;4.23;;
23302;SDS011;11820;48.738;9.092;2024-01-25T06:36:12;22.30;;;3.63;;
23302;SDS011;11820;48.738;9.092;2024-01-25T06:38:39;21.20;;;4.10;;
23302;SDS011;11820;48.738;9.092;2024-01-25T06:41:04;17.63;;;4.13;;
23302;SDS011;11820;48.738;9.092;2024-01-25T06:43:29;16.63;;;3.77;;
23302;SDS011;11820;48.738;9.092;2024-01-25T06:45:55;22.10;;;4.23;;
23302;SDS011;11820;48.738;9.092;2024-01-25T06:48:20;16.03;;;3.77;;
23302;SDS011;11820;48.738;9.092;2024-01-25T06:50:45;26.53;;;5.07;;
23302;SDS011;11820;48.738;9.092;2024-01-25T06:53:11;20.50;;;4.67;;
23302;SDS011;11820;48.738;9.092;2024-01-25T06:55:36;23.30;;;4.00;;
23302;SDS011;11820;48.738;9.092;2024-01-25T06:58:01;20.80;;;4.37;;
23302;SDS011;11820;48.738;9.092;2024-01-25T07:00:27;19.93;;;4.10;;
23302;SDS011;11820;48.738;9.092;2024-01-25T07:02:52;13.60;;;3.97;;
23302;SDS011;11820;48.738;9.092;2024-01-25T07:05:17;18.20;;;3.73;;
23302;SDS011;11820;48.738;9.092;2024-01-25T07:07:43;25.80;;;4.20;;
23302;SDS011;11820;48.738;9.092;2024-01-25T07:10:08;18.20;;;3.83;;
23302;SDS011;11820;48.738;9.092;2024-01-25T07:12:34;18.30;;;3.63;;
23302;SDS011;11820;48.738;9.092;2024-01-25T07:14:59;17.50;;;3.83;;
23302;SDS011;11820;48.738;9.092;2024-01-25T07:17:24;20.23;;;4.53;;
23302;SDS011;11820;48.738;9.092;2024-01-25T07:19:50;18.50;;;4.23;;
23302;SDS011;11820;48.738;9.092;2024-01-25T07:22:15;16.33;;;3.90;;
23302;SDS011;11820;48.738;9.092;2024-01-25T07:24:42;16.67;;;4.43;;
23302;SDS011;11820;48.738;9.092;2024-01-25T07:27:07;15.20;;;3.23;;
23302;SDS011;11820;48.738;9.092;2024-01-25T07:29:33;19.77;;;4.27;;
23302;SDS011;11820;48.738;9.092;2024-01-25T07:31:58;21.40;;;4.33;;
23302;SDS011;11820;48.738;9.092;2024-01-25T07:34:23;26.60;;;4.57;;
23302;SDS011;11820;48.738;9.092;2024-01-25T07:36:48;21.07;;;4.17;;
23302;SDS011;11820;48.738;9.092;2024-01-25T07:39:14;16.60;;;3.80;;
23302;SDS011;11820;48.738;9.092;2024-01-25T07:41:39;19.80;;;4.23;;
23302;SDS011;11820;48.738;9.092;2024-01-25T07:44:04;23.30;;;5.17;;
23302;SDS011;11820;48.738;9.092;2024-01-25T07:46:31;13.90;;;3.70;;
23302;SDS011;11820;48.738;9.092;2024-01-25T07:48:56;14.83;;;3.53;;
23302;SDS011;11820;48.738;9.092;2024-01-25T07:51:21;16.00;;;4.00;;
23302;SDS011;11820;48.738;9.092;2024-01-25T07:53:47;18.23;;;4.23;;
23302;SDS011;11820;48.738;9.092;2024-01-25T07:56:12;15.97;;;3.77;;
23302;SDS011;11820;48.738;9.092;2024-01-25T07:58:38;18.07;;;4.13;;
23302;SDS011;11820;48.738;9.092;2024-01-25T08:01:04;21.10;;;3.57;;
23302;SDS011;11820;48.738;9.092;2024-01-25T08:03:31;16.33;;;3.50;;
23302;SDS011;11820;48.738;9.092;2024-01-25T08:05:56;16.27;;;3.60;;
23302;SDS011;11820;48.738;9.092;2024-01-25T08:08:22;16.37;;;4.03;;
23302;SDS011;11820;48.738;9.092;2024-01-25T08:10:47;16.80;;;4.67;;
23302;SDS011;11820;48.738;9.092;2024-01-25T08:13:12;15.73;;;3.03;;
23302;SDS011;11820;48.738;9.092;2024-01-25T08:15:38;20.93;;;3.93;;
23302;SDS011;11820;48.738;9.092;2024-01-25T08:18:03;16.37;;;4.30;;
23302;SDS011;11820;48.738;9.092;2024-01-25T08:20:29;20.97;;;4.73;;
23302;SDS011;11820;48.738;9.092;2024-01-25T08:22:54;18.87;;;4.00;;
23302;SDS011;11820;48.738;9.092;2024-01-25T08:25:19;12.97;;;3.23;;
23302;SDS011;11820;48.738;9.092;2024-01-25T08:27:45;15.40;;;3.87;;
23302;SDS011;11820;48.738;9.092;2024-01-25T08:30:10;22.37;;;4.23;;
23302;SDS011;11820;48.738;9.092;2024-01-25T08:32:36;19.03;;;3.70;;
23302;SDS011;11820;48.738;9.092;2024-01-25T08:35:01;20.17;;;3.73;;
23302;SDS011;11820;48.738;9.092;2024-01-25T08:37:27;14.17;;;4.50;;
23302;SDS011;11820;48.738;9.092;2024-01-25T08:39:52;22.67;;;4.33;;
23302;SDS011;11820;48.738;9.092;2024-01-25T08:42:18;11.27;;;4.13;;
23302;SDS011;11820;48.738;9.092;2024-01-25T08:44:45;15.37;;;3.53;;
23302;SDS011;11820;48.738;9.092;2024-01-25T08:47:16;12.60;;;3.50;;
23302;SDS011;11820;48.738;9.092;2024-01-25T08:49:42;18.60;;;3.60;;
23302;SDS011;11820;48.738;9.092;2024-01-25T08:52:08;12.27;;;3.93;;
23302;SDS011;11820;48.738;9.092;2024-01-25T08:54:33;15.10;;;3.90;;
23302;SDS011;11820;48.738;9.092;2024-01-25T08:56:59;19.03;;;4.00;;
23302;SDS011;11820;48.738;9.092;2024-01-25T08:59:24;20.10;;;3.53;;
23302;SDS011;11820;48.738;9.092;2024-01-25T09:01:51;14.00;;;3.40;;
23302;SDS011;11820;48.738;9.092;2024-01-25T09:04:16;16.67;;;3.87;;
23302;SDS011;11820;48.738;9.092;2024-01-25T09:06:43;17.97;;;4.10;;
23302;SDS011;11820;48.738;9.092;2024-01-25T09:09:08;11.90;;;3.57;;
23302;SDS011;11820;48.738;9.092;2024-01-25T09:11:35;17.80;;;3.80;;
23302;SDS011;11820;48.738;9.092;2024-01-25T09:14:01;21.87;;;4.37;;
23302;SDS011;11820;48.738;9.092;2024-01-25T09:16:26;15.07;;;4.07;;
23302;SDS011;11820;48.738;9.092;2024-01-25T09:18:51;17.77;;;4.80;;
23302;SDS011;11820;48.738;9.092;2024-01-25T09:21:17;15.27;;;4.00;;
23302;SDS011;11820;48.738;9.092;2024-01-25T09:23:42;16.27;;;4.63;;
23302;SDS011;11820;48.738;9.092;2024-01-25T09:26:07;15.00;;;3.77;;
23302;SDS011;11820;48.738;9.092;2024-01-25T09:28:33;18.80;;;3.93;;
23302;SDS011;11820;48.738;9.092;2024-01-25T09:30:59;12.77;;;4.27;;
23302;SDS011;11820;48.738;9.092;2024-01-25T09:33:24;13.77;;;3.50;;
23302;SDS011;11820;48.738;9.092;2024-01-25T09:35:49;14.97;;;3.53;;
23302;SDS011;11820;48.738;9.092;2024-01-25T09:38:15;17.03;;;3.63;;
23302;SDS011;11820;48.738;9.092;2024-01-25T09:40:40;9.97;;;2.77;;
23302;SDS011;11820;48.738;9.092;2024-01-25T09:43:05;21.43;;;3.67;;
23302;SDS011;11820;48.738;9.092;2024-01-25T09:45:31;16.70;;;3.53;;
23302;SDS011;11820;48.738;9.092;2024-01-25T09:47:56;13.70;;;3.70;;
23302;SDS011;11820;48.738;9.092;2024-01-25T09:50:22;18.50;;;4.10;;
23302;SDS011;11820;48.738;9.092;2024-01-25T09:52:50;12.57;;;3.43;;
23302;SDS011;11820;48.738;9.092;2024-01-25T09:55:20;14.33;;;3.43;;
23302;SDS011;11820;48.738;9.092;2024-01-25T09:57:49;16.40;;;3.57;;
23302;SDS011;11820;48.738;9.092;2024-01-25T10:00:18;18.13;;;4.60;;
23302;SDS011;11820;48.738;9.092;2024-01-25T10:02:46;10.80;;;3.40;;
23302;SDS011;11820;48.738;9.092;2024-01-25T10:05:13;12.40;;;3.27;;
23302;SDS011;11820;48.738;9.092;2024-01-25T10:07:39;18.83;;;3.83;;
23302;SDS011;11820;48.738;9.092;2024-01-25T10:10:06;12.63;;;3.37;;
23302;SDS011;11820;48.738;9.092;2024-01-25T10:12:32;17.20;;;4.17;;
23302;SDS011;11820;48.738;9.092;2024-01-25T10:14:58;14.97;;;3.67;;
23302;SDS011;11820;48.738;9.092;2024-01-25T10:17:23;14.60;;;3.33;;
23302;SDS011;11820;48.738;9.092;2024-01-25T10:19:49;16.83;;;4.00;;
23302;SDS011;11820;48.738;9.092;2024-01-25T10:22:14;15.30;;;3.33;;
23302;SDS011;11820;48.738;9.092;2024-01-25T10:24:40;17.27;;;3.93;;
23302;SDS011;11820;48.738;9.092;2024-01-25T10:27:06;16.47;;;4.00;;
23302;SDS011;11820;48.738;9.092;2024-01-25T10:29:34;16.63;;;4.43;;
23302;SDS011;11820;48.738;9.092;2024-01-25T10:32:00;13.83;;;3.63;;
23302;SDS011;11820;48.738;9.092;2024-01-25T10:34:26;14.33;;;3.30;;
23302;SDS011;11820;48.738;9.092;2024-01-25T10:36:54;11.63;;;3.30;;
23302;SDS011;11820;48.738;9.092;2024-01-25T10:39:20;18.30;;;4.20;;
23302;SDS011;11820;48.738;9.092;2024-01-25T10:41:46;14.67;;;3.73;;
23302;SDS011;11820;48.738;9.092;2024-01-25T10:44:15;11.73;;;3.03;;
23302;SDS011;11820;48.738;9.092;2024-01-25T10:46:41;11.23;;;3.00;;
23302;SDS011;11820;48.738;9.092;2024-01-25T10:49:07;15.77;;;3.70;;
23302;SDS011;11820;48.738;9.092;2024-01-25T10:51:33;14.57;;;4.23;;
23302;SDS011;11820;48.738;9.092;2024-01-25T10:53:59;11.77;;;2.83;;
23302;SDS011;11820;48.738;9.092;2024-01-25T10:56:25;10.53;;;2.63;;
23302;SDS011;11820;48.738;9.092;2024-01-25T10:58:51;16.57;;;3.67;;
23302;SDS011;11820;48.738;9.092;2024-01-25T11:01:17;15.40;;;2.90;;
23302;SDS011;11820;48.738;9.092;2024-01-25T11:03:45;15.13;;;3.20;;
23302;SDS011;11820;48.738;9.092;2024-01-25T11:06:13;15.17;;;3.33;;
23302;SDS011;11820;48.738;9.092;2024-01-25T11:08:39;14.13;;;3.13;;
23302;SDS011;11820;48.738;9.092;2024-01-25T11:11:08;11.30;;;2.90;;
23302;SDS011;11820;48.738;9.092;2024-01-25T11:13:38;12.23;;;3.77;;
23302;SDS011;11820;48.738;9.092;2024-01-25T11:16:14;14.07;;;2.83;;
23302;SDS011;11820;48.738;9.092;2024-01-25T11:18:48;9.47;;;2.57;;
23302;SDS011;11820;48.738;9.092;2024-01-25T11:21:21;16.23;;;3.60;;
23302;SDS011;11820;48.738;9.092;2024-01-25T11:24:02;11.57;;;2.93;;
23302;SDS011;11820;48.738;9.092;2024-01-25T11:26:28;10.00;;;3.40;;
23302;SDS011;11820;48.738;9.092;2024-01-25T11:28:55;12.63;;;3.40;;
23302;SDS011;11820;48.738;9.092;2024-01-25T11:31:21;9.27;;;3.27;;
23302;SDS011;11820;48.738;9.092;2024-01-25T11:33:48;11.43;;;3.57;;
23302;SDS011;11820;48.738;9.092;2024-01-25T11:36:15;9.27;;;2.57;;
23302;SDS011;11820;48.738;9.092;2024-01-25T11:38:40;11.73;;;2.67;;
23302;SDS011;11820;48.738;9.092;2024-01-25T11:41:05;13.47;;;2.67;;
23302;SDS011;11820;48.738;9.092;2024-01-25T11:43:30;15.43;;;3.13;;
23302;SDS011;11820;48.738;9.092;2024-01-25T11:45:56;10.00;;;2.20;;
23302;SDS011;11820;48.738;9.092;2024-01-25T11:48:21;9.63;;;2.60;;
23302;SDS011;11820;48.738;9.092;2024-01-25T11:50:46;9.10;;;2.67;;
23302;SDS011;11820;48.738;9.092;2024-01-25T11:53:12;15.03;;;3.20;;
23302;SDS011;11820;48.738;9.092;2024-01-25T11:55:37;9.33;;;2.70;;
23302;SDS011;11820;48.738;9.092;2024-01-25T11:58:03;8.17;;;2.80;;
23302;SDS011;11820;48.738;9.092;2024-01-25T12:00:28;9.23;;;2.63;;
23302;SDS011;11820;48.738;9.092;2024-01-25T12:02:54;9.13;;;2.53;;
23302;SDS011;11820;48.738;9.092;2024-01-25T12:05:20;8.70;;;2.17;;
23302;SDS011;11820;48.738;9.092;2024-01-25T12:07:45;7.43;;;2.43;;
23302;SDS011;11820;48.738;9.092;2024-01-25T12:10:15;8.43;;;2.57;;
23302;SDS011;11820;48.738;9.092;2024-01-25T12:12:42;9.87;;;2.10;;
23302;SDS011;11820;48.738;9.092;2024-01-25T12:15:07;10.67;;;3.30;;
23302;SDS011;11820;48.738;9.092;2024-01-25T12:17:33;8.20;;;2.77;;
23302;SDS011;11820;48.738;9.092;2024-01-25T12:20:05;9.10;;;2.40;;
23302;SDS011;11820;48.738;9.092;2024-01-25T12:22:35;9.87;;;3.43;;
23302;SDS011;11820;48.738;9.092;2024-01-25T12:25:02;10.10;;;2.90;;
23302;SDS011;11820;48.738;9.092;2024-01-25T12:27:31;10.07;;;3.23;;
23302;SDS011;11820;48.738;9.092;2024-01-25T12:29:57;8.30;;;2.27;;
23302;SDS011;11820;48.738;9.092;2024-01-25T12:32:22;11.67;;;2.93;;
23302;SDS011;11820;48.738;9.092;2024-01-25T12:37:19;8.97;;;2.70;;
23302;SDS011;11820;48.738;9.092;2024-01-25T12:39:45;10.30;;;3.07;;
23302;SDS011;11820;48.738;9.092;2024-01-25T12:42:10;11.93;;;3.53;;
23302;SDS011;11820;48.738;9.092;2024-01-25T12:44:36;8.43;;;2.73;;
23302;SDS011;11820;48.738;9.092;2024-01-25T12:47:01;7.93;;;2.37;;
23302;SDS011;11820;48.738;9.092;2024-01-25T12:49:31;10.33;;;2.63;;
23302;SDS011;11820;48.738;9.092;2024-01-25T12:51:56;9.63;;;3.03;;
23302;SDS011;11820;48.738;9.092;2024-01-25T12:54:22;9.13;;;2.53;;
23302;SDS011;11820;48.738;9.092;2024-01-25T12:56:47;9.40;;;2.33;;
23302;SDS011;11820;48.738;9.092;2024-01-25T12:59:12;9.27;;;3.07;;
23302;SDS011;11820;48.738;9.092;2024-01-25T13:01:38;9.30;;;2.57;;
23302;SDS011;11820;48.738;9.092;2024-01-25T13:04:03;8.57;;;2.50;;
23302;SDS011;11820;48.738;9.092;2024-01-25T13:06:29;11.83;;;3.03;;
23302;SDS011;11820;48.738;9.092;2024-01-25T13:08:54;9.10;;;2.77;;
23302;SDS011;11820;48.738;9.092;2024-01-25T13:11:19;10.17;;;3.87;;
23302;SDS011;11820;48.738;9.092;2024-01-25T13:13:45;10.43;;;3.00;;
23302;SDS011;11820;48.738;9.092;2024-01-25T13:16:10;10.60;;;2.97;;
23302;SDS011;11820;48.738;9.092;2024-01-25T13:18:35;7.73;;;2.30;;
23302;SDS011;11820;48.738;9.092;2024-01-25T13:21:00;9.17;;;3.77;;
23302;SDS011;11820;48.738;9.092;2024-01-25T13:23:26;9.33;;;2.47;;
23302;SDS011;11820;48.738;9.092;2024-01-25T13:25:51;9.73;;;2.50;;
23302;SDS011;11820;48.738;9.092;2024-01-25T13:28:16;8.37;;;2.23;;
23302;SDS011;11820;48.738;9.092;2024-01-25T13:30:42;10.80;;;2.93;;
23302;SDS011;11820;48.738;9.092;2024-01-25T13:33:07;5.90;;;2.00;;
23302;SDS011;11820;48.738;9.092;2024-01-25T13:35:32;11.77;;;3.70;;
23302;SDS011;11820;48.738;9.092;2024-01-25T13:37:58;10.87;;;2.93;;
23302;SDS011;11820;48.738;9.092;2024-01-25T13:40:26;8.60;;;2.53;;
23302;SDS011;11820;48.738;9.092;2024-01-25T13:42:52;7.47;;;2.43;;
23302;SDS011;11820;48.738;9.092;2024-01-25T13:45:17;10.63;;;2.63;;
23302;SDS011;11820;48.738;9.092;2024-01-25T13:47:43;6.73;;;2.30;;
23302;SDS011;11820;48.738;9.092;2024-01-25T13:50:09;10.50;;;2.80;;
23302;SDS011;11820;48.738;9.092;2024-01-25T13:52:34;5.37;;;2.67;;
23302;SDS011;11820;48.738;9.092;2024-01-25T13:54:59;10.53;;;2.50;;
23302;SDS011;11820;48.738;9.092;2024-01-25T13:57:25;13.90;;;3.53;;
23302;SDS011;11820;48.738;9.092;2024-01-25T13:59:50;9.53;;;2.30;;
23302;SDS011;11820;48.738;9.092;2024-01-25T14:02:16;9.90;;;2.43;;
23302;SDS011;11820;48.738;9.092;2024-01-25T14:04:41;8.10;;;2.73;;
23302;SDS011;11820;48.738;9.092;2024-01-25T14:07:06;13.27;;;2.60;;
23302;SDS011;11820;48.738;9.092;2024-01-25T14:09:32;9.50;;;2.50;;
23302;SDS011;11820;48.738;9.092;2024-01-25T14:11:57;9.07;;;2.13;;
23302;SDS011;11820;48.738;9.092;2024-01-25T14:14:23;6.70;;;2.47;;
23302;SDS011;11820;48.738;9.092;2024-01-25T14:16:48;11.03;;;3.20;;
23302;SDS011;11820;48.738;9.092;2024-01-25T14:19:13;8.40;;;2.50;;
23302;SDS011;11820;48.738;9.092;2024-01-25T14:21:39;10.30;;;2.50;;
23302;SDS011;11820;48.738;9.092;2024-01-25T14:24:04;7.70;;;2.10;;
23302;SDS011;11820;48.738;9.092;2024-01-25T14:26:29;8.33;;;2.37;;
23302;SDS011;11820;48.738;9.092;2024-01-25T14:28:55;11.63;;;2.50;;